Station DILA1 - 8735180 - Dauphin Island, AL Image indicating link to RSS feed of recent meteorological observations for station DILA1


Conditions at DILA1 as of
0518 GMT on 05/30/2024:
     

Click on the graph icon in the table below to see a time series plot of the last five days of that observation.

5-day plot - Wind Direction Wind Direction (WDIR): E ( 90 deg true )
5-day plot - Wind Speed Wind Speed (WSPD): 9.9 kts
5-day plot - Wind Gust Wind Gust (GST): 11.1 kts
5-day plot - Atmospheric Pressure Atmospheric Pressure (PRES):30.03 in
5-day plot - Air Temperature Air Temperature (ATMP): 78.8 °F
5-day plot - Water Temperature Water Temperature (WTMP): 83.3 °F
5-day plot -  Wind Speed, Wind Gust and Atmospheric Pressure Combined plot of Wind Speed, Gust, and Air Pressure
NOS Water Level Observation Network Water Level
Previous observations
TIME
(GMT)
5-day plot - Wind Direction
WDIR
 
5-day plot - Wind Speed
WSPD
kts
5-day plot - Wind Gust
GST
kts
5-day plot - Wave Height
WVHT
ft
5-day plot - Dominant Wave Period
DPD
sec
5-day plot - Average Wave Period
APD
sec
5-day plot - Mean Wave Direction
MWD
 
5-day plot - Atmospheric Pressure
PRES
in
5-day plot - Pressure Tendency
PTDY
in
5-day plot - Air Temperature
ATMP
°F
5-day plot - Water Temperature
WTMP
°F
5-day plot - Dew Point
DEWP
°F
5-day plot - Salinity
SAL
psu
5-day plot - Visibility
VIS
nmi
5-day plot - Tide (above MLLW)
TIDE
ft
2024-05-30 0512ENE 9.9 11.1----30.03- 78.8 83.3----
2024-05-30 0506ENE 9.9 12.0----30.03- 78.6 83.3----
2024-05-30 0500ENE 12.0 14.0----30.02-0.05 78.6 83.3----
2024-05-30 0454ENE 13.0 14.0----30.02- 78.3 83.3----
2024-05-30 0448ENE 11.1 12.0----30.02-- 83.5----
2024-05-30 0442 NE 8.9 11.1----30.03-- 83.1----
2024-05-30 0436 NE 8.9 11.1----30.04-- 82.9----
2024-05-30 0430NNE 9.9 11.1----30.04- 77.5 82.9----
2024-05-30 0424NNE 8.9 9.9----30.05- 77.2 82.9----
2024-05-30 0418 N 8.9 12.0----30.06- 77.0 83.1----
2024-05-30 0412 N 12.0 14.0----30.06- 77.0 83.1----
2024-05-30 0406NNW 13.0 15.9----30.06- 77.0 83.1----
2024-05-30 0400NNW 15.0 18.1----30.07+0.01 76.8 82.9----
2024-05-30 0354NNW 15.0 15.9----30.07- 77.0 83.1----
2024-05-30 0348NNW 15.0 18.1----30.07- 77.0 83.3----
2024-05-30 0342 NW 18.1 19.0----30.08- 77.4 83.3----
2024-05-30 0336 NW 17.1 19.0----30.08- 77.7 83.3----
2024-05-30 0330 NW 13.0 15.0----30.08- 78.3 83.5----
2024-05-30 0324 NW 14.0 15.9----30.08- 78.4 83.7----
2024-05-30 0318NNW 14.0 18.1----30.08- 79.2 83.7----
2024-05-30 0312NNW 17.1 18.1----30.08- 79.5 83.8----
2024-05-30 0306NNW 15.9 19.0----30.08- 79.9 83.8----
2024-05-30 0300NNW 15.0 15.9----30.09+0.04 80.4 83.8----
2024-05-30 0254NNW 15.9 18.1----30.09- 81.0 83.8----
2024-05-30 0248 NW 9.9 11.1----30.09- 82.2 83.7----
2024-05-30 0242 NW 6.0 6.0----30.09- 81.5 83.7----
2024-05-30 0236 NW 4.1 5.1----30.09- 81.5 83.7----
2024-05-30 0230WNW 4.1 4.1----30.09- 82.0 83.7----
2024-05-30 0224WNW 1.9 2.9----30.08- 82.2 83.5----
2024-05-30 0218 W 1.9 1.9----30.08- 82.2 83.5----
2024-05-30 0212WNW 1.0 1.0----30.08- 82.2 83.7----
2024-05-30 0206WNW 1.0 1.0----30.08- 82.2 83.7----
2024-05-30 0200WNW 1.0 1.9----30.08+0.05 82.2 83.5----
2024-05-30 0154- 0.0 1.0----30.08- 82.6 83.5----
2024-05-30 0148 SW 1.0 1.9----30.07- 82.6 83.5----
2024-05-30 0142 S 1.0 1.9----30.07- 82.6 83.5----
2024-05-30 0136SSW 1.9 2.9----30.07- 82.6 83.7----
2024-05-30 0130 S 1.9 4.1----30.06- 82.8 83.5----
2024-05-30 0124SSE 2.9 5.1----30.06- 82.9 83.7----
2024-05-30 0118SSE 4.1 5.1----30.06- 82.9 83.5----
2024-05-30 0112 SE 4.1 5.1----30.06- 82.9 83.7----
2024-05-30 0106 SE 4.1 4.1----30.05- 82.9 83.7----
2024-05-30 0100SSE 4.1 5.1----30.05+0.00 82.9 83.8----
2024-05-30 0054SSE 4.1 5.1----30.05- 82.9 83.8----
2024-05-30 0048SSE 5.1 5.1----30.05- 82.9 83.8----
2024-05-30 0042SSE 5.1 6.0----30.05- 82.9 84.0----
2024-05-30 0036SSE 5.1 6.0----30.05- 82.9 84.2----
2024-05-30 0030SSE 6.0 7.0----30.05- 82.9 84.2----
2024-05-30 0024SSE 5.1 7.0----30.05- 82.9 84.4----
2024-05-30 0018SSE 6.0 6.0----30.05- 82.9 84.6----
2024-05-30 0012 S 5.1 6.0----30.05- 82.9 84.6----
2024-05-30 0006SSE 5.1 7.0----30.05- 82.9 84.7----
2024-05-30 0000SSE 6.0 7.0----30.05-0.01 82.9 84.6----
2024-05-29 2354SSE 7.0 8.9----30.05- 83.1 84.7----
2024-05-29 2348SSE 7.0 8.9----30.04-- 85.1----
2024-05-29 2342 S 7.0 8.9----30.04-- 85.3----
2024-05-29 2336 S 8.9 9.9----30.04-- 85.5----
2024-05-29 2330SSE 8.9 9.9----30.04- 83.3 85.3----
2024-05-29 2324SSE 8.9 11.1----30.03- 83.1 85.3----
2024-05-29 2318SSE 9.9 11.1----30.03- 83.1 85.3----
2024-05-29 2312SSE 9.9 11.1----30.03- 83.1 85.5----
2024-05-29 2306SSE 9.9 12.0----30.03- 83.1 85.5----
2024-05-29 2300SSE 11.1 12.0----30.03-0.04 83.1 85.5----
2024-05-29 2254SSE 9.9 11.1----30.03- 82.9 85.5----
2024-05-29 2248SSE 9.9 11.1----30.03- 83.1 85.5----
2024-05-29 2242SSE 9.9 11.1----30.04- 83.1 85.3----
2024-05-29 2236SSE 9.9 11.1----30.04- 83.3 85.5----
2024-05-29 2230SSE 8.9 9.9----30.04- 82.9 85.5----
2024-05-29 2224 S 8.9 9.9----30.05- 82.9 85.5----
2024-05-29 2218SSE 8.9 11.1----30.04- 82.8 85.5----
2024-05-29 2212 S 9.9 11.1----30.05- 82.6 85.5----
2024-05-29 2206SSE 8.9 9.9----30.05- 82.6 85.3----
2024-05-29 2200SSE 8.9 11.1----30.05-0.04 82.6 85.3----
2024-05-29 2154 S 8.9 11.1----30.06- 82.6 85.5----
2024-05-29 2148SSE 9.9 12.0----30.05- 82.6 85.5----
2024-05-29 2142SSE 9.9 11.1----30.06- 82.8 85.5----
2024-05-29 2136SSE 9.9 12.0----30.06- 82.9 85.5----
2024-05-29 2130SSE 9.9 11.1----30.05- 82.8 85.5----
2024-05-29 2124SSE 9.9 11.1----30.06- 82.9 85.5----
2024-05-29 2118SSE 9.9 12.0----30.05- 82.8 85.3----
2024-05-29 2112SSE 9.9 11.1----30.05- 82.9 85.3----
2024-05-29 2106 SE 11.1 11.1----30.05- 82.6 85.3----
2024-05-29 2100SSE 9.9 12.0----30.06-0.05 82.6 85.3----
2024-05-29 2054SSE 11.1 12.0----30.06- 82.8 85.1----
2024-05-29 2048SSE 11.1 12.0----30.06-- 85.1----
2024-05-29 2042SSE 11.1 12.0----30.06-- 85.3----
2024-05-29 2036SSE 11.1 13.0----30.06-- 85.3----
2024-05-29 2030SSE 11.1 12.0----30.07- 82.6 85.3----
2024-05-29 2024SSE 11.1 12.0----30.07- 82.8 85.3----
2024-05-29 2018 SE 12.0 13.0----30.07- 82.6 85.3----
2024-05-29 2012SSE 12.0 13.0----30.07- 82.8 85.3----
2024-05-29 2006 SE 11.1 14.0----30.07- 82.9 85.1----
2024-05-29 2000 SE 12.0 13.0----30.07-0.05 82.9 84.9----
2024-05-29 1954 SE 11.1 12.0----30.08- 82.8 85.1----
2024-05-29 1948 SE 9.9 12.0----30.09- 82.6 84.9----
2024-05-29 1942 SE 9.9 12.0----30.09- 82.4 84.9----
2024-05-29 1936 SE 9.9 12.0----30.09- 82.2 84.6----
2024-05-29 1930 SE 9.9 12.0----30.09- 82.4 84.6----
2024-05-29 1924 SE 9.9 12.0----30.09- 82.6 84.2----
2024-05-29 1918 SE 8.9 9.9----30.09- 82.8 84.4----
2024-05-29 1912 SE 9.9 11.1----30.09- 82.8 84.4----
2024-05-29 1906 SE 9.9 12.0----30.09- 83.3 84.2----
2024-05-29 1900 SE 11.1 12.0----30.09- 83.8 84.0----
2024-05-29 1854 SE 8.9 9.9----30.09- 84.2 83.7----
2024-05-29 1848ESE 8.9 11.1----30.10- 84.2 83.5----
2024-05-29 1842ESE 9.9 12.0----30.10- 84.0 82.8----
2024-05-29 1836ESE 9.9 12.0----30.10- 83.8 82.2----
2024-05-29 1830ESE 11.1 12.0----30.10- 83.8 82.4----
2024-05-29 1824ESE 8.9 12.0----30.10- 83.8 81.7----
2024-05-29 1818ESE 8.9 11.1----30.10- 83.8 81.5----
2024-05-29 1812 E 8.9 9.9----30.10- 83.8 81.7----
2024-05-29 1806 E 8.9 11.1----30.10- 83.8 81.7----
2024-05-29 1800 E 8.0 12.0----30.11-0.02 83.7 81.7----
2024-05-29 1754ESE 9.9 11.1----30.11- 83.8 81.5----
2024-05-29 1748ESE 7.0 9.9----30.10- 83.5 81.5----
2024-05-29 1742 E 5.1 7.0----30.10- 82.9 81.9----
2024-05-29 1736 E 6.0 8.0----30.10- 82.9 82.8----
2024-05-29 1730 E 6.0 7.0------------
2024-05-29 1724 E 6.0 7.0------------
2024-05-29 1718 E 7.0 8.0----30.11-- 82.2----
2024-05-29 1712 E 7.0 8.0----30.11-- 82.2----
2024-05-29 1706 E 7.0 8.0----30.11-- 82.2----
2024-05-29 1700 E 6.0 8.0----30.12+0.00 82.2 81.7----
2024-05-29 1654 E 7.0 8.0----30.12- 82.0 81.5----
2024-05-29 1648 E 7.0 8.0------- 81.1----
2024-05-29 1642 E 7.0 8.0------- 81.0----
2024-05-29 1636 E 7.0 8.9------- 80.2----
2024-05-29 1630ENE 8.0 8.9------ 81.5-----
2024-05-29 1624ENE 7.0 8.9------ 81.5-----
2024-05-29 1618ENE 7.0 8.9------------
2024-05-29 1612ENE 8.9 9.9------------
2024-05-29 1606ENE 8.0 8.9------------
2024-05-29 1600ENE 7.0 8.9------ 80.8-----
2024-05-29 1554ENE 8.0 8.0------ 80.8-----
2024-05-29 1548 E 6.0 8.0----30.13-- 81.0----
2024-05-29 1542 E 6.0 8.0----30.13-- 81.1----
2024-05-29 1536 E 8.0 8.9----30.13-- 81.0----
2024-05-29 1530ENE 7.0 8.9------- 81.3----
2024-05-29 1524ENE 8.0 8.9------- 81.7----
2024-05-29 1518ENE 8.0 9.9----30.13- 80.1 81.3----
2024-05-29 1512ENE 8.0 9.9----30.13- 80.1 81.1----
2024-05-29 1506ENE 8.9 9.9----30.13- 80.1 81.3----
2024-05-29 1500ENE 8.9 9.9----30.12+0.04 80.2 81.5----
2024-05-29 1454ENE 8.9 9.9----30.13- 80.2 81.5----
2024-05-29 1448ENE 8.0 8.9----30.13-- 81.7----
2024-05-29 1442 E 8.0 8.9----30.12-- 81.9----
2024-05-29 1436 E 7.0 8.9----30.12-- 82.0----
2024-05-29 1430ENE 8.0 8.0----30.12- 80.4 81.7----
2024-05-29 1424 E 7.0 9.9----30.12- 80.8 82.2----
2024-05-29 1418 E 8.0 8.9----30.12- 80.8 82.2----
2024-05-29 1412 E 8.0 11.1----30.12- 81.0 82.6----
2024-05-29 1406 E 8.9 9.9----30.12- 80.8 82.4----
2024-05-29 1400 E 8.9 9.9----30.12+0.04 80.8 82.4----
2024-05-29 1354 E 8.0 9.9----30.12- 80.6 82.4----
2024-05-29 1348 E 8.9 9.9----30.12- 80.8 82.6----
2024-05-29 1342 E 8.9 9.9----30.12- 81.0 82.4----
2024-05-29 1336 E 8.9 11.1----30.12- 81.0 82.4----
2024-05-29 1330 E 9.9 12.0----30.11- 80.8 82.6----
2024-05-29 1324 E 8.9 9.9----30.11- 80.4 82.9----
2024-05-29 1318 E 8.9 11.1----30.11- 80.4 82.9----
2024-05-29 1312 E 8.9 11.1----30.11- 80.4 82.9----
2024-05-29 1306 E 8.9 9.9----30.11- 80.4 83.1----
2024-05-29 1300 E 8.0 9.9----30.11+0.05 80.4 83.1----
2024-05-29 1254 E 9.9 11.1----30.11- 80.2 83.1----
2024-05-29 1248 E 8.0 9.9----30.10- 80.6 83.1----
2024-05-29 1242 E 8.9 11.1----30.10- 80.4 83.1----
2024-05-29 1236 E 9.9 12.0----30.10- 80.6 83.1----
2024-05-29 1230 E 9.9 12.0----30.09- 80.6 83.1----
2024-05-29 1224 E 9.9 12.0----30.09- 80.6 83.3----
2024-05-29 1218 E 9.9 13.0----30.09- 80.8 83.3----
2024-05-29 1212 E 9.9 13.0----30.09- 80.8 83.5----
2024-05-29 1206 E 9.9 12.0----30.09- 80.8 83.3----
2024-05-29 1200 E 9.9 13.0----30.09+0.06 81.0 83.3----
2024-05-29 1154 E 11.1 13.0----30.09- 81.0 83.3----
2024-05-29 1148 E 9.9 12.0----30.08-- 83.3----
2024-05-29 1142 E 11.1 13.0----30.08-- 83.3----
2024-05-29 1136 E 9.9 13.0----30.08-- 83.1----
2024-05-29 1130 E 12.0 13.0----30.08- 81.1 83.1----
2024-05-29 1124ENE 12.0 13.0----30.08- 81.1 83.1----
2024-05-29 1118ENE 12.0 13.0----30.08- 81.3 83.1----
2024-05-29 1112 E 9.9 12.0----30.08- 81.1 83.3----
2024-05-29 1106 E 9.9 12.0----30.08- 81.1 83.3----
2024-05-29 1100 E 9.9 12.0----30.07+0.06 81.5 83.3----
2024-05-29 1054 E 11.1 12.0----30.07- 81.7 83.1----
2024-05-29 1048 E 11.1 12.0----30.07- 81.7 83.3----
2024-05-29 1042 E 8.9 12.0----30.07- 81.9 83.1----
2024-05-29 1036 E 9.9 12.0----30.07- 81.9 83.1----
2024-05-29 1030 E 11.1 13.0----30.07- 82.0 83.1----
2024-05-29 1024 E 12.0 13.0----30.06- 82.2 83.3----
2024-05-29 1018 E 12.0 14.0----30.06- 82.4 83.3----
2024-05-29 1012 E 12.0 14.0----30.06- 82.6 83.5----
2024-05-29 1006 E 12.0 13.0----30.06- 82.6 83.5----
2024-05-29 1000 E 9.9 12.0----30.06+0.05 82.8 83.5----
2024-05-29 0954 E 11.1 13.0----30.06- 82.8 83.5----
2024-05-29 0948ENE 11.1 13.0----30.06- 82.9 83.5----
2024-05-29 0942 E 12.0 13.0----30.05- 83.1 83.7----
2024-05-29 0936 E 12.0 14.0----30.05- 83.1 83.7----
2024-05-29 0930ENE 13.0 14.0----30.04- 83.3 83.7----
2024-05-29 0924ENE 11.1 12.0----30.04- 83.1 83.7----
2024-05-29 0918 E 11.1 13.0----30.04- 83.3 83.8----
2024-05-29 0912ENE 11.1 13.0----30.04- 83.5 83.8----
2024-05-29 0906ENE 12.0 13.0----30.03- 83.5 84.0----
2024-05-29 0900ENE 12.0 13.0----30.03+0.02 83.5 84.0----
2024-05-29 0854 E 12.0 14.0----30.03- 83.7 83.8----
2024-05-29 0848 E 12.0 14.0----30.03- 83.7 84.0----
2024-05-29 0842 E 13.0 14.0----30.02- 83.8 84.0----
2024-05-29 0836ENE 11.1 14.0----30.03- 83.8 84.0----
2024-05-29 0830ENE 13.0 14.0----30.02- 84.0 84.0----
2024-05-29 0824ENE 12.0 14.0----30.02- 83.8 84.2----
2024-05-29 0818ENE 11.1 13.0----30.01- 83.8 84.2----
2024-05-29 0812ENE 12.0 15.0----30.01- 84.0 84.2----
2024-05-29 0806ENE 13.0 15.0----30.02- 84.2 84.2----
2024-05-29 0800ENE 12.0 13.0----30.01- 83.7 84.2----
2024-05-29 0754ENE 9.9 11.1----30.01- 82.6 84.2----
2024-05-29 0748 NE 8.9 11.1----30.01- 82.4 84.2----
2024-05-29 0742 NE 8.0 11.1----30.01- 82.2 84.2----
2024-05-29 0736 NE 8.0 9.9----30.01- 81.9 84.2----
2024-05-29 0730 NE 8.0 8.9----30.00- 81.3 84.4----
2024-05-29 0724 NE 8.0 9.9----30.00- 81.1 84.4----
2024-05-29 0718NNE 8.0 8.9----30.01- 81.1 84.4----
2024-05-29 0712NNE 8.0 8.9----30.00- 80.8 84.4----
2024-05-29 0706NNE 8.0 8.9----30.00- 80.8 84.4----
2024-05-29 0700 N 8.0 9.9----30.01-0.01 80.6 84.6----
2024-05-29 0654 N 8.0 8.9----30.01- 80.8 84.6----
2024-05-29 0648 N 8.0 8.9----30.01- 80.6 84.6----
2024-05-29 0642 N 8.9 9.9----30.01- 80.6 84.6----
2024-05-29 0636 N 8.9 9.9----30.01- 80.8 84.6----
2024-05-29 0630 N 8.0 9.9----30.01- 81.0 84.4----
2024-05-29 0624 N 9.9 11.1----30.02- 81.0 84.4----
2024-05-29 0618 N 11.1 12.0----30.02- 81.0 84.4----
2024-05-29 0612 N 9.9 11.1----30.02- 81.3 84.4----
2024-05-29 0606 N 8.9 9.9----30.01- 81.5 84.2----
2024-05-29 0600 N 8.0 8.9----30.01-0.03 81.7 84.2----
2024-05-29 0554NNW 8.9 11.1----30.02- 81.9 84.2----